Time;durP1;ratioP1;P1;durP2;ratioP2;P2;SDS_P1;SDS_P2;PMS_P1;PMS_P2;Temp;Humidity;BMP_temperature;BMP_pressure;BME280_temperature;BME280_humidity;BME280_pressure;Samples;Min_cycle;Max_cycle;Signal;HPM_P1;HPM_P2
2022/10/16 00:03:03;;;;;;;27.80;5.00;;;;;;;13.67;94.52;100314.69;4956373;28;20108;-71
2022/10/16 00:06:08;;;;;;;19.60;5.25;;;;;;;13.56;94.67;100327.72;4944060;29;20054;-71
2022/10/16 00:09:16;;;;;;;27.77;5.70;;;;;;;13.32;95.03;100332.84;4956106;29;20050;-71
2022/10/16 00:12:20;;;;;;;6.90;5.30;;;;;;;13.41;95.37;100336.63;4955577;28;20097;-71
2022/10/16 00:15:24;;;;;;;10.23;5.65;;;;;;;13.53;94.96;100327.06;4955613;28;20138;-72
2022/10/16 00:18:28;;;;;;;15.23;6.97;;;;;;;13.53;94.63;100337.56;4933160;28;20453;-71
2022/10/16 00:21:33;;;;;;;9.10;7.43;;;;;;;13.45;95.11;100323.19;4956128;28;20102;-71
2022/10/16 00:24:56;;;;;;;12.47;6.77;;;;;;;13.47;95.09;100334.44;4954752;28;20568;-71
2022/10/16 00:28:00;;;;;;;14.65;6.03;;;;;;;13.51;94.82;100340.31;4955637;28;20061;-71
2022/10/16 00:31:06;;;;;;;13.75;5.57;;;;;;;13.63;94.25;100333.41;4955758;28;20053;-71
2022/10/16 00:34:10;;;;;;;15.20;8.27;;;;;;;13.66;93.81;100327.94;4955560;28;20050;-71
2022/10/16 00:37:13;;;;;;;14.10;6.82;;;;;;;13.54;94.83;100340.13;4955481;29;20049;-71
2022/10/16 00:40:17;;;;;;;22.73;8.05;;;;;;;13.44;95.55;100339.91;4955510;29;20068;-71
2022/10/16 00:43:55;;;;;;;17.67;8.75;;;;;;;13.30;96.41;100331.25;4955429;28;20145;-71
2022/10/16 00:46:59;;;;;;;15.43;6.22;;;;;;;13.28;96.79;100339.25;4934132;29;20106;-71
2022/10/16 00:50:16;;;;;;;15.18;6.78;;;;;;;13.37;96.43;100350.91;4955089;28;20110;-71
2022/10/16 00:53:20;;;;;;;15.93;5.35;;;;;;;13.23;97.67;100352.63;4954911;28;20141;-71
2022/10/16 00:56:24;;;;;;;21.48;5.22;;;;;;;13.37;96.48;100354.38;4955167;29;20058;-71
2022/10/16 00:59:33;;;;;;;29.58;4.80;;;;;;;13.41;95.73;100365.53;4955073;29;20050;-71
2022/10/16 01:02:36;;;;;;;15.82;5.25;;;;;;;13.53;95.03;100374.34;4951577;29;20050;-71
2022/10/16 01:05:53;;;;;;;6.75;4.75;;;;;;;13.49;94.84;100378.97;4954840;29;20046;-71
2022/10/16 01:09:23;;;;;;;18.33;5.80;;;;;;;13.45;95.56;100372.25;4955005;29;20094;-71
2022/10/16 01:12:41;;;;;;;22.73;6.05;;;;;;;13.43;95.57;100366.25;4954514;28;20046;-71
2022/10/16 01:16:03;;;;;;;23.80;7.03;;;;;;;13.43;95.24;100368.88;4954787;29;20518;-71
2022/10/16 01:19:19;;;;;;;15.60;6.80;;;;;;;13.35;95.83;100353.63;4953940;29;20045;-71
2022/10/16 01:22:30;;;;;;;18.13;6.20;;;;;;;13.42;95.18;100359.31;4954692;29;20042;-71
2022/10/16 01:25:53;;;;;;;18.30;6.60;;;;;;;13.46;94.70;100371.28;4954452;29;20509;-71
2022/10/16 01:29:29;;;;;;;35.33;6.40;;;;;;;13.26;94.82;100362.97;4954868;29;20110;-71
2022/10/16 01:32:42;;;;;;;36.78;5.50;;;;;;;13.28;95.87;100351.53;4954500;29;20122;-71
2022/10/16 01:35:51;;;;;;;15.60;4.93;;;;;;;13.34;95.56;100366.88;4954159;28;20054;-71
2022/10/16 01:38:58;;;;;;;15.32;5.70;;;;;;;13.27;95.46;100374.28;4954391;29;20518;-71
2022/10/16 01:42:28;;;;;;;14.02;5.30;;;;;;;13.18;96.26;100365.22;4954482;29;20074;-71
2022/10/16 01:45:33;;;;;;;13.57;3.92;;;;;;;13.27;95.63;100369.03;4954619;29;20105;-71
2022/10/16 01:48:38;;;;;;;14.50;3.95;;;;;;;13.40;94.56;100369.06;4954512;29;20447;-71
2022/10/16 01:51:45;;;;;;;13.15;4.43;;;;;;;13.38;94.66;100366.56;4954252;29;20061;-71
2022/10/16 01:54:53;;;;;;;11.98;3.67;;;;;;;13.37;94.87;100370.16;4954349;29;20478;-71
2022/10/16 01:57:59;;;;;;;15.27;3.97;;;;;;;13.39;94.40;100357.72;4954489;29;20058;-71
2022/10/16 02:01:07;;;;;;;16.25;4.15;;;;;;;13.44;93.79;100353.03;4954379;29;20062;-72
2022/10/16 02:04:29;;;;;;;18.63;4.75;;;;;;;13.43;93.97;100368.88;4954007;29;20150;-71
2022/10/16 02:07:33;;;;;;;10.70;4.03;;;;;;;13.46;93.83;100384.44;4953980;29;20057;-71
2022/10/16 02:10:37;;;;;;;12.35;4.80;;;;;;;13.36;94.32;100384.19;4953867;29;20153;-71
2022/10/16 02:13:48;;;;;;;10.10;4.38;;;;;;;13.22;95.44;100385.09;4954065;29;20110;-71
2022/10/16 02:16:53;;;;;;;15.73;5.28;;;;;;;13.28;95.59;100380.41;4956586;28;20450;-71
2022/10/16 02:19:59;;;;;;;10.32;4.03;;;;;;;13.41;95.02;100376.03;4973175;28;20050;-71
2022/10/16 02:23:03;;;;;;;20.52;4.35;;;;;;;13.46;94.24;100374.78;4961537;28;20517;-71
2022/10/16 02:26:12;;;;;;;13.45;4.43;;;;;;;13.54;93.48;100382.16;4973186;28;20042;-71
2022/10/16 02:29:20;;;;;;;9.48;4.75;;;;;;;13.52;93.58;100389.28;4973422;28;20053;-71
2022/10/16 02:32:30;;;;;;;13.25;4.70;;;;;;;13.53;93.71;100393.59;4967838;28;20050;-71
2022/10/16 02:35:34;;;;;;;12.35;4.03;;;;;;;13.30;95.21;100399.53;4972933;28;20061;-71
2022/10/16 02:38:43;;;;;;;10.13;4.88;;;;;;;13.31;96.20;100416.97;4960595;28;20062;-71
2022/10/16 02:41:47;;;;;;;15.38;4.43;;;;;;;13.24;96.78;100425.25;4973126;28;20501;-71
2022/10/16 02:44:51;;;;;;;13.13;3.92;;;;;;;13.21;97.13;100409.66;4972890;28;20513;-71
2022/10/16 02:47:54;;;;;;;;;;;;;;;13.41;95.98;100418.88;4975365;28;20097;-71
2022/10/16 02:50:57;;;;;;;7.88;3.47;;;;;;;13.45;95.29;100406.38;4963024;28;20436;-71
2022/10/16 02:54:03;;;;;;;12.48;3.70;;;;;;;13.32;96.68;100410.78;4956972;29;20046;-71
2022/10/16 02:57:06;;;;;;;12.15;3.50;;;;;;;13.32;96.52;100410.78;4957351;29;20059;-71
2022/10/16 03:00:11;;;;;;;;;;;;;;;13.38;96.56;100397.25;4957592;29;20046;-71
2022/10/16 03:03:14;;;;;;;8.32;3.13;;;;;;;13.40;95.94;100397.97;4945014;29;19964;-71
2022/10/16 03:06:18;;;;;;;6.82;2.80;;;;;;;13.53;94.99;100401.50;4956952;29;20094;-72
2022/10/16 03:09:26;;;;;;;8.18;3.53;;;;;;;13.56;94.03;100413.56;4957075;29;20463;-71
2022/10/16 03:12:31;;;;;;;6.57;2.40;;;;;;;13.54;94.13;100411.03;4956882;28;20130;-71
2022/10/16 03:15:34;;;;;;;4.50;2.70;;;;;;;13.54;94.33;100376.91;4944860;29;20090;-72
2022/10/16 03:18:37;;;;;;;9.73;2.80;;;;;;;13.52;94.06;100360.38;4956717;29;20050;-71
2022/10/16 03:21:41;;;;;;;11.00;2.70;;;;;;;13.56;93.88;100361.88;4956952;29;20054;-71
2022/10/16 03:24:44;;;;;;;6.80;2.55;;;;;;;13.43;94.34;100345.22;4956927;29;20198;-71
2022/10/16 03:27:48;;;;;;;4.90;2.53;;;;;;;13.54;93.90;100373.44;4956847;29;20537;-71
2022/10/16 03:30:52;;;;;;;8.25;2.42;;;;;;;13.41;94.46;100392.63;4956590;29;20102;-71
2022/10/16 03:33:57;;;;;;;5.47;1.70;;;;;;;13.18;95.81;100401.97;4956478;29;20472;-71
2022/10/16 03:37:00;;;;;;;3.60;1.75;;;;;;;13.33;95.81;100409.81;4956238;29;20182;-71
2022/10/16 03:40:05;;;;;;;5.95;1.55;;;;;;;13.43;95.31;100421.41;4956657;29;20105;-72
2022/10/16 03:43:08;;;;;;;6.05;2.20;;;;;;;13.47;95.35;100425.53;4944390;29;20038;-71
2022/10/16 03:46:12;;;;;;;5.30;1.65;;;;;;;13.46;95.16;100427.31;4956335;29;20510;-71
2022/10/16 03:49:15;;;;;;;6.95;1.77;;;;;;;13.53;94.60;100433.00;4944281;29;20414;-71
2022/10/16 03:52:19;;;;;;;7.47;1.90;;;;;;;13.52;94.58;100431.31;4956023;29;20046;-71
2022/10/16 03:55:23;;;;;;;5.55;1.42;;;;;;;13.54;94.39;100426.81;4956103;29;20062;-71
2022/10/16 03:58:26;;;;;;;7.88;1.90;;;;;;;13.47;94.34;100429.00;4944185;28;20101;-71
2022/10/16 04:01:30;;;;;;;6.47;2.05;;;;;;;13.38;94.53;100431.38;4956131;29;20098;-71
2022/10/16 04:04:34;;;;;;;14.18;2.15;;;;;;;13.28;95.51;100446.06;4955866;29;20135;-71
2022/10/16 04:07:38;;;;;;;7.63;2.42;;;;;;;13.23;96.27;100452.41;4955988;29;20077;-71
2022/10/16 04:10:48;;;;;;;8.05;2.35;;;;;;;13.24;95.92;100451.50;4955924;29;20053;-71
2022/10/16 04:13:53;;;;;;;7.53;1.48;;;;;;;13.34;95.74;100448.28;4944119;29;20101;-71
2022/10/16 04:16:56;;;;;;;3.88;1.30;;;;;;;13.49;94.56;100442.84;4955564;29;20062;-71
2022/10/16 04:20:01;;;;;;;9.80;1.75;;;;;;;13.50;94.02;100454.22;4955616;29;20049;-72
2022/10/16 04:23:05;;;;;;;7.85;1.55;;;;;;;13.41;94.40;100453.03;4955991;29;20081;-71
2022/10/16 04:26:10;;;;;;;5.50;1.50;;;;;;;13.45;94.16;100453.66;4955801;29;20107;-71
2022/10/16 04:29:13;;;;;;;5.53;1.73;;;;;;;13.41;94.55;100457.44;4955978;29;20070;-71
2022/10/16 04:32:17;;;;;;;4.45;1.65;;;;;;;13.52;93.91;100452.31;4955300;29;20446;-71
2022/10/16 04:35:22;;;;;;;8.32;2.25;;;;;;;13.44;94.18;100465.13;4955406;29;20574;-71
2022/10/16 04:38:25;;;;;;;4.82;1.40;;;;;;;13.49;94.15;100469.13;4955650;29;20418;-71
2022/10/16 04:41:32;;;;;;;5.10;1.33;;;;;;;13.46;94.21;100471.09;4955706;29;20121;-71
2022/10/16 04:44:37;;;;;;;5.68;1.42;;;;;;;13.51;94.52;100465.56;4955617;29;20114;-71
2022/10/16 04:47:41;;;;;;;5.15;1.50;;;;;;;13.55;94.01;100464.41;4955256;29;20058;-71
2022/10/16 04:50:44;;;;;;;6.82;1.55;;;;;;;13.53;94.04;100458.41;4955200;29;20513;-71
2022/10/16 04:53:48;;;;;;;4.20;1.58;;;;;;;13.40;94.97;100459.25;4955171;29;20046;-71
2022/10/16 04:56:51;;;;;;;9.73;1.38;;;;;;;13.42;95.09;100446.00;4955083;29;20105;-71
2022/10/16 04:59:56;;;;;;;7.22;1.70;;;;;;;13.47;94.61;100464.94;4954779;29;20213;-71
2022/10/16 05:03:00;;;;;;;5.82;1.17;;;;;;;13.44;94.73;100465.13;4954997;29;20050;-71
2022/10/16 05:06:08;;;;;;;8.63;1.30;;;;;;;13.39;95.46;100468.03;4955207;29;20058;-71
2022/10/16 05:09:12;;;;;;;10.18;1.35;;;;;;;13.41;94.87;100471.41;4954827;28;20352;-71
2022/10/16 05:12:15;;;;;;;3.42;1.73;;;;;;;13.42;94.72;100461.75;4954864;28;20058;-71
2022/10/16 05:15:20;;;;;;;3.85;1.17;;;;;;;13.40;95.00;100468.88;4954728;29;20086;-72
2022/10/16 05:18:24;;;;;;;5.22;1.60;;;;;;;13.46;94.64;100476.34;4942910;29;20102;-71
2022/10/16 05:21:27;;;;;;;5.60;1.35;;;;;;;13.39;94.79;100485.59;4954711;29;20117;-71
2022/10/16 05:24:31;;;;;;;12.25;1.38;;;;;;;13.30;96.03;100487.00;4954694;29;20439;-72
2022/10/16 05:27:35;;;;;;;9.48;1.23;;;;;;;13.36;95.61;100489.25;4954143;29;20053;-71
2022/10/16 05:30:39;;;;;;;4.65;1.27;;;;;;;13.46;94.63;100478.97;4954726;29;20399;-71
2022/10/16 05:33:43;;;;;;;7.57;1.00;;;;;;;13.49;94.00;100478.78;4954495;29;20130;-71
2022/10/16 05:36:50;;;;;;;10.57;1.50;;;;;;;13.47;93.70;100476.28;4954616;29;20138;-71
2022/10/16 05:39:54;;;;;;;6.28;1.20;;;;;;;13.40;94.72;100469.75;4954509;29;20105;-71
2022/10/16 05:42:58;;;;;;;7.55;1.58;;;;;;;13.35;95.00;100476.22;4954184;29;20050;-71
2022/10/16 05:46:04;;;;;;;10.23;1.73;;;;;;;13.34;95.33;100464.88;4954309;29;20046;-71
2022/10/16 05:49:08;;;;;;;6.57;0.90;;;;;;;13.41;94.41;100474.03;4954429;29;20114;-71
2022/10/16 05:52:11;;;;;;;8.80;1.75;;;;;;;13.34;94.57;100482.44;4954255;29;20058;-71
2022/10/16 05:55:15;;;;;;;7.50;1.63;;;;;;;13.19;95.68;100492.09;4954120;29;20042;-71
2022/10/16 05:58:24;;;;;;;14.43;1.50;;;;;;;13.08;97.15;100505.91;4954306;29;20058;-71
2022/10/16 06:01:30;;;;;;;10.02;1.50;;;;;;;13.17;97.11;100505.28;4953980;29;20042;-71
2022/10/16 06:04:34;;;;;;;5.03;1.40;;;;;;;13.20;96.61;100515.59;4954221;29;20078;-71
2022/10/16 06:07:39;;;;;;;4.50;1.17;;;;;;;13.31;95.90;100509.72;4954101;29;20097;-71
2022/10/16 06:10:44;;;;;;;;;;;;;;;13.35;95.64;100510.38;4942772;29;20410;-71
2022/10/16 06:13:52;;;;;;;6.75;1.40;;;;;;;13.40;95.46;100505.66;4953612;29;19976;-71
2022/10/16 06:16:56;;;;;;;9.48;1.77;;;;;;;13.30;95.95;100507.19;4953561;29;20414;-71
2022/10/16 06:19:59;;;;;;;12.38;2.50;;;;;;;13.16;97.36;100501.00;4954002;29;20101;-71
2022/10/16 06:23:04;;;;;;;8.70;1.70;;;;;;;13.07;98.03;100519.94;4956338;28;20066;-71
2022/10/16 06:26:15;;;;;;;5.85;1.45;;;;;;;13.08;98.20;100526.03;4957841;28;20046;-72
2022/10/16 06:29:19;;;;;;;11.20;1.90;;;;;;;13.20;97.79;100525.28;4957637;29;20113;-71
2022/10/16 06:32:23;;;;;;;8.27;1.42;;;;;;;13.18;97.92;100535.03;4957562;29;20538;-71
2022/10/16 06:35:31;;;;;;;6.68;1.40;;;;;;;13.28;97.56;100535.34;4957945;29;20046;-71
2022/10/16 06:38:36;;;;;;;9.40;1.65;;;;;;;13.36;96.78;100525.16;4957505;29;20542;-71
2022/10/16 06:41:39;;;;;;;10.02;1.23;;;;;;;13.38;96.39;100528.56;4957342;29;20103;-71
2022/10/16 06:45:04;;;;;;;9.10;1.17;;;;;;;13.46;95.68;100529.75;4945424;29;20050;-72
2022/10/16 06:48:08;;;;;;;5.38;1.23;;;;;;;13.54;94.96;100533.66;4957385;29;20102;-71
2022/10/16 06:51:14;;;;;;;9.80;1.80;;;;;;;13.58;94.59;100546.50;4945296;29;20105;-72
2022/10/16 06:54:17;;;;;;;11.85;2.22;;;;;;;13.57;94.61;100539.56;4957236;29;20050;-71
2022/10/16 06:57:21;;;;;;;6.65;1.00;;;;;;;13.54;94.57;100558.16;4957609;29;20142;-71
2022/10/16 07:00:24;;;;;;;6.90;1.20;;;;;;;13.53;94.68;100564.34;4957016;29;20054;-71
2022/10/16 07:03:27;;;;;;;9.00;1.58;;;;;;;13.43;95.69;100579.00;4957112;29;20039;-71
2022/10/16 07:06:33;;;;;;;10.65;1.90;;;;;;;13.35;96.95;100584.75;4957294;29;20110;-71
2022/10/16 07:09:37;;;;;;;4.80;1.40;;;;;;;13.35;97.43;100597.03;4956977;29;20042;-72
2022/10/16 07:12:40;;;;;;;;;;;;;;;13.45;97.15;100598.13;4957305;28;20082;-71
2022/10/16 07:15:43;;;;;;;;;;;;;;;13.57;96.26;100610.50;4957111;29;19925;-72
2022/10/16 07:18:48;;;;;;;5.97;1.38;;;;;;;13.58;96.64;100609.53;4956881;29;19953;-71
2022/10/16 07:21:52;;;;;;;4.75;1.33;;;;;;;13.66;96.13;100617.81;4956797;29;20054;-71
2022/10/16 07:24:56;;;;;;;8.10;1.40;;;;;;;13.63;96.06;100622.41;4944773;29;20195;-72
2022/10/16 07:28:01;;;;;;;5.80;1.60;;;;;;;13.61;96.09;100617.25;4956997;29;20391;-72
2022/10/16 07:31:10;;;;;;;10.68;1.60;;;;;;;13.61;96.33;100614.59;4956839;29;20054;-71
2022/10/16 07:34:16;;;;;;;11.82;2.30;;;;;;;13.59;96.89;100618.28;4944315;29;20054;-71
2022/10/16 07:37:21;;;;;;;10.35;2.05;;;;;;;13.50;97.87;100632.84;4956518;29;20059;-71
2022/10/16 07:40:26;;;;;;;9.20;2.20;;;;;;;13.48;98.78;100645.22;4956683;29;20115;-71
2022/10/16 07:43:31;;;;;;;7.57;1.27;;;;;;;13.64;98.21;100643.31;4956463;29;20066;-71
2022/10/16 07:46:35;;;;;;;5.15;1.45;;;;;;;13.69;97.69;100654.41;4956604;29;20046;-72
2022/10/16 07:49:39;;;;;;;6.00;1.23;;;;;;;13.80;97.78;100658.13;4956307;29;20042;-71
2022/10/16 07:52:45;;;;;;;7.40;1.50;;;;;;;13.91;97.06;100656.50;4956395;29;20109;-71
2022/10/16 07:55:49;;;;;;;8.27;1.45;;;;;;;13.97;96.74;100665.75;4956196;29;20160;-71
2022/10/16 07:58:53;;;;;;;6.88;1.98;;;;;;;14.05;96.44;100670.53;4955698;29;20046;-72
2022/10/16 08:01:57;;;;;;;10.18;1.42;;;;;;;13.91;97.02;100664.38;4956395;29;20046;-72
2022/10/16 08:05:01;;;;;;;6.13;2.00;;;;;;;13.98;97.36;100664.84;4955933;29;20046;-71
2022/10/16 08:08:05;;;;;;;6.78;1.40;;;;;;;13.95;97.26;100675.56;4956006;29;20050;-71
2022/10/16 08:11:09;;;;;;;5.60;0.98;;;;;;;13.91;97.70;100664.38;4955401;28;20049;-71
2022/10/16 08:14:15;;;;;;;3.80;0.65;;;;;;;13.88;97.76;100679.47;4943851;29;20070;-72
2022/10/16 08:17:18;;;;;;;;;;;;;;;13.83;98.51;100671.06;4956370;29;20122;-72
2022/10/16 08:20:22;;;;;;;5.90;1.30;;;;;;;13.89;99.14;100675.94;4955708;29;20008;-71
2022/10/16 08:23:27;;;;;;;5.20;1.40;;;;;;;13.94;99.81;100679.09;4955814;29;20148;-71
2022/10/16 08:26:30;;;;;;;5.53;1.70;;;;;;;14.11;98.73;100676.25;4955599;29;20050;-71
2022/10/16 08:29:33;;;;;;;6.97;1.50;;;;;;;14.14;98.03;100670.78;4955707;29;20128;-72
2022/10/16 08:32:36;;;;;;;8.90;0.93;;;;;;;14.07;97.94;100689.66;4955448;29;20047;-72
2022/10/16 08:35:40;;;;;;;3.80;0.70;;;;;;;14.07;98.73;100698.44;4955845;29;20069;-71
2022/10/16 08:38:49;;;;;;;3.70;0.80;;;;;;;14.04;98.88;100701.25;4955608;29;20051;-71
2022/10/16 08:42:16;;;;;;;3.85;0.90;;;;;;;14.17;100.00;100696.88;4955471;29;20378;-71
2022/10/16 08:45:46;;;;;;;7.93;2.05;;;;;;;14.33;100.00;100695.91;4954845;28;20534;-71
2022/10/16 08:48:53;;;;;;;3.97;0.80;;;;;;;14.36;99.97;100706.22;4955103;29;20292;-72
2022/10/16 08:51:57;;;;;;;3.63;0.55;;;;;;;14.33;99.93;100707.25;4954854;29;20202;-71
2022/10/16 08:55:03;;;;;;;7.93;0.82;;;;;;;14.36;99.82;100714.13;4954901;29;20097;-71
2022/10/16 08:58:15;;;;;;;2.15;0.47;;;;;;;14.53;99.81;100716.50;4943329;29;20046;-72
2022/10/16 09:01:22;;;;;;;3.70;1.17;;;;;;;14.59;99.13;100724.00;4954882;29;20509;-71
2022/10/16 09:04:44;;;;;;;4.40;0.90;;;;;;;14.69;99.06;100721.59;4954986;29;20046;-71
2022/10/16 09:07:53;;;;;;;8.52;0.85;;;;;;;14.71;99.19;100721.47;4955255;29;20185;-71
2022/10/16 09:11:00;;;;;;;4.07;0.73;;;;;;;14.68;98.49;100719.94;4942738;28;20094;-71
2022/10/16 09:14:36;;;;;;;6.60;0.88;;;;;;;14.60;100.00;100725.69;4954783;29;20122;-71
2022/10/16 09:17:59;;;;;;;5.22;1.50;;;;;;;14.62;99.47;100729.06;4954947;29;20085;-72
2022/10/16 09:21:18;;;;;;;6.88;1.92;;;;;;;14.71;99.97;100739.91;4954336;29;20041;-71
2022/10/16 09:24:26;;;;;;;6.07;2.35;;;;;;;14.89;99.44;100733.44;4954739;29;20046;-72
2022/10/16 09:27:31;;;;;;;9.40;2.40;;;;;;;14.99;98.80;100746.81;4954662;29;20113;-72
2022/10/16 09:30:39;;;;;;;8.45;1.92;;;;;;;15.05;98.51;100752.50;4954582;29;20411;-72
2022/10/16 09:33:47;;;;;;;10.88;2.15;;;;;;;15.11;99.94;100752.09;4954565;29;20046;-72
2022/10/16 09:36:52;;;;;;;7.45;2.30;;;;;;;15.19;98.42;100756.00;4954686;29;20057;-72
2022/10/16 09:39:57;;;;;;;5.55;1.50;;;;;;;15.19;98.61;100763.91;4954110;29;20046;-71
2022/10/16 09:43:30;;;;;;;3.30;1.40;;;;;;;15.26;98.50;100760.75;4954469;29;20578;-72
2022/10/16 09:46:37;;;;;;;5.53;1.35;;;;;;;15.39;98.33;100757.28;4937030;29;20051;-72
2022/10/16 09:49:55;;;;;;;4.25;1.33;;;;;;;15.44;99.80;100761.28;4954163;29;20094;-71
2022/10/16 09:53:14;;;;;;;3.65;1.20;;;;;;;15.64;97.29;100754.66;4932004;29;20039;-72
2022/10/16 09:56:26;;;;;;;4.03;1.25;;;;;;;15.63;98.28;100763.47;4954423;28;20065;-71
2022/10/16 09:59:31;;;;;;;7.20;1.90;;;;;;;15.81;97.59;100756.97;4954495;29;20102;-71
2022/10/16 10:02:40;;;;;;;3.47;1.30;;;;;;;15.98;98.28;100758.41;4953877;29;20098;-71
2022/10/16 10:05:48;;;;;;;3.97;1.20;;;;;;;16.05;98.31;100764.09;4940215;29;20127;-71
2022/10/16 10:08:55;;;;;;;7.05;1.17;;;;;;;16.06;97.62;100764.94;4953596;29;20058;-71
2022/10/16 10:12:02;;;;;;;3.88;1.50;;;;;;;16.10;95.21;100761.13;4942098;29;20058;-71
2022/10/16 10:15:21;;;;;;;33.15;22.83;;;;;;;16.19;93.08;100763.09;4941835;29;20045;-71
2022/10/16 10:18:26;;;;;;;8.13;3.25;;;;;;;16.28;89.96;100765.91;4952971;28;20093;-71
2022/10/16 10:21:33;;;;;;;2.97;1.33;;;;;;;16.23;86.77;100757.47;4953784;29;20046;-71
2022/10/16 10:24:37;;;;;;;1.50;0.52;;;;;;;16.31;86.93;100756.94;4950103;29;20054;-71
2022/10/16 10:28:01;;;;;;;2.70;0.60;;;;;;;16.26;86.07;100745.88;4953713;29;20050;-71
2022/10/16 10:31:25;;;;;;;2.05;1.13;;;;;;;16.20;86.77;100746.31;4952893;29;20041;-71
2022/10/16 10:34:42;;;;;;;1.65;0.32;;;;;;;16.30;87.57;100744.69;4949996;29;20101;-71
2022/10/16 10:38:12;;;;;;;4.00;0.43;;;;;;;16.45;88.34;100746.22;4953853;29;20081;-71
2022/10/16 10:41:34;;;;;;;3.53;0.50;;;;;;;16.40;86.37;100753.66;4953931;29;20097;-71
2022/10/16 10:44:50;;;;;;;1.35;0.32;;;;;;;16.38;86.92;100742.34;4930503;28;20110;-71
2022/10/16 10:48:09;;;;;;;1.02;0.28;;;;;;;16.26;87.58;100738.78;4951207;28;20046;-71
2022/10/16 10:51:28;;;;;;;4.90;0.50;;;;;;;16.50;88.25;100746.72;4952931;29;20054;-71
2022/10/16 10:54:55;;;;;;;1.83;0.47;;;;;;;16.60;85.38;100744.25;4953380;29;20074;-71
2022/10/16 10:58:25;;;;;;;1.55;0.40;;;;;;;16.79;85.11;100749.03;4953694;29;20451;-71
2022/10/16 11:02:17;;;;;;;1.77;0.75;;;;;;;16.86;84.94;100737.06;4953717;29;20054;-71
2022/10/16 11:05:40;;;;;;;3.58;0.35;;;;;;;16.91;85.22;100739.34;4953338;29;20102;-71
2022/10/16 11:08:52;;;;;;;3.78;0.55;;;;;;;17.03;86.39;100740.22;4955289;28;20518;-71
2022/10/16 11:12:07;;;;;;;3.28;0.32;;;;;;;17.03;86.68;100738.41;4957009;28;20522;-71
2022/10/16 11:15:39;;;;;;;3.20;0.55;;;;;;;16.87;85.85;100727.31;4956942;29;20065;-72
2022/10/16 11:18:56;;;;;;;1.50;0.50;;;;;;;16.77;87.04;100724.53;4956790;29;20046;-71
2022/10/16 11:22:13;;;;;;;5.00;0.52;;;;;;;16.91;90.42;100732.28;4935105;28;20514;-71
2022/10/16 11:25:27;;;;;;;1.55;0.28;;;;;;;16.96;87.52;100732.75;4956999;28;20050;-71
2022/10/16 11:28:38;;;;;;;1.40;0.28;;;;;;;17.10;85.31;100746.72;4956681;28;20105;-71
2022/10/16 11:31:50;;;;;;;2.75;0.40;;;;;;;17.30;84.07;100746.03;4956471;28;20091;-71
2022/10/16 11:35:16;;;;;;;2.03;0.75;;;;;;;17.43;82.42;100746.78;4956317;28;20411;-71
2022/10/16 11:38:42;;;;;;;2.03;0.35;;;;;;;17.41;80.70;100746.03;4949808;28;20074;-71
2022/10/16 11:42:05;;;;;;;2.47;0.40;;;;;;;17.26;81.39;100752.53;4956321;28;20066;-71
2022/10/16 11:45:15;;;;;;;1.05;0.45;;;;;;;17.36;81.30;100752.66;4955593;28;20053;-71
2022/10/16 11:48:29;;;;;;;2.50;0.30;;;;;;;17.20;81.64;100759.13;4955676;28;20573;-71
2022/10/16 11:51:39;;;;;;;2.03;0.30;;;;;;;17.08;82.09;100751.28;4956423;28;20130;-71
2022/10/16 11:54:53;;;;;;;0.85;0.40;;;;;;;17.27;82.09;100741.00;4956402;28;20438;-71
2022/10/16 11:58:14;;;;;;;5.30;1.75;;;;;;;17.56;80.64;100736.09;4956267;28;20094;-71
2022/10/16 12:01:28;;;;;;;1.50;0.43;;;;;;;17.67;80.07;100741.34;4955201;28;20106;-71
2022/10/16 12:04:45;;;;;;;1.15;0.25;;;;;;;17.77;80.64;100738.03;4954926;28;20086;-71
2022/10/16 12:11:39;;;;;;;4.47;1.50;;;;;;;17.84;79.81;100734.78;4965618;28;20109;-71
2022/10/16 12:14:42;;;;;;;1.27;0.32;;;;;;;17.88;79.17;100733.56;4963616;28;20037;-71
2022/10/16 12:17:47;;;;;;;0.65;0.20;;;;;;;18.08;78.07;100739.06;4962847;28;20551;-71
2022/10/16 12:21:05;;;;;;;1.30;0.30;;;;;;;17.97;78.90;100741.75;4949583;28;20074;-71
2022/10/16 12:24:33;;;;;;;3.95;0.60;;;;;;;18.26;76.95;100742.88;4936441;29;20415;-71
2022/10/16 12:27:38;;;;;;;1.92;0.35;;;;;;;18.27;76.92;100733.97;4936471;29;20415;-71
2022/10/16 12:30:52;;;;;;;2.70;0.40;;;;;;;18.30;76.74;100743.47;4948634;28;20078;-71
2022/10/16 12:33:56;;;;;;;4.70;0.43;;;;;;;18.52;80.23;100742.56;4955501;28;20066;-71
2022/10/16 12:37:19;;;;;;;2.15;0.40;;;;;;;18.68;77.85;100742.97;4944069;28;20167;-71
2022/10/16 12:40:32;;;;;;;1.00;0.25;;;;;;;18.67;76.65;100746.59;4950460;28;20042;-71
2022/10/16 12:43:43;;;;;;;0.77;0.10;;;;;;;18.25;77.15;100745.66;4936314;29;20046;-71
2022/10/16 12:46:50;;;;;;;0.75;0.20;;;;;;;18.24;77.61;100760.69;4936071;29;20046;-71
2022/10/16 12:49:59;;;;;;;3.85;0.28;;;;;;;18.45;78.77;100754.63;4936255;29;20046;-71
2022/10/16 12:53:17;;;;;;;5.68;3.40;;;;;;;18.17;80.45;100767.44;4936150;29;20587;-71
2022/10/16 12:56:29;;;;;;;3.08;1.60;;;;;;;18.06;79.59;100763.03;4936092;29;20055;-71
2022/10/16 12:59:52;;;;;;;2.88;1.10;;;;;;;18.10;80.04;100763.63;4936105;29;20496;-71
2022/10/16 13:03:21;;;;;;;1.25;0.32;;;;;;;18.28;79.49;100758.63;4924259;29;20074;-72
2022/10/16 13:06:38;;;;;;;9.18;0.95;;;;;;;18.38;78.21;100750.78;4936311;29;20050;-71
2022/10/16 13:10:20;;;;;;;3.45;0.30;;;;;;;18.25;78.14;100750.94;4936211;29;20098;-71
2022/10/16 13:14:02;;;;;;;7.15;0.50;;;;;;;18.53;78.06;100745.06;4935919;29;20497;-71
2022/10/16 13:17:23;;;;;;;1.77;0.50;;;;;;;18.66;78.40;100744.06;4935413;29;20063;-71
2022/10/16 13:20:36;;;;;;;1.30;0.30;;;;;;;18.61;77.24;100741.81;4936271;29;20772;-71
2022/10/16 13:24:22;;;;;;;3.33;0.57;;;;;;;19.01;75.48;100746.47;4924295;29;20122;-71
2022/10/16 13:27:43;;;;;;;2.70;0.30;;;;;;;18.89;76.22;100761.59;4887016;29;20141;-71
2022/10/16 13:30:53;;;;;;;3.97;0.50;;;;;;;18.77;75.86;100758.16;4923334;29;20053;-71
2022/10/16 13:33:59;;;;;;;1.35;0.20;;;;;;;18.65;76.07;100753.00;4935743;29;20122;-71
2022/10/16 13:37:18;;;;;;;2.80;1.92;;;;;;;18.57;76.85;100762.41;4935742;29;20063;-71
2022/10/16 13:40:24;;;;;;;2.17;0.30;;;;;;;18.45;77.02;100770.53;4935758;29;20488;-71
2022/10/16 13:43:37;;;;;;;2.33;0.40;;;;;;;18.29;80.19;100753.22;4935400;29;20055;-71
2022/10/16 13:46:44;;;;;;;2.22;0.55;;;;;;;18.17;81.61;100758.69;4934996;29;20118;-71
2022/10/16 13:50:03;;;;;;;1.15;0.40;;;;;;;18.16;80.85;100762.28;4935380;29;20043;-71
2022/10/16 13:53:12;;;;;;;1.92;0.57;;;;;;;18.32;79.32;100755.63;4923617;29;20106;-71
2022/10/16 13:56:19;;;;;;;3.75;0.40;;;;;;;18.39;80.42;100763.91;4935377;29;20558;-71
2022/10/16 13:59:42;;;;;;;4.65;2.22;;;;;;;18.29;81.46;100766.47;4935242;29;20101;-71
2022/10/16 14:02:52;;;;;;;13.48;2.72;;;;;;;18.19;81.91;100760.25;4943804;29;20090;-71
2022/10/16 14:05:59;;;;;;;4.90;3.28;;;;;;;18.20;82.15;100756.63;4954567;29;20132;-71
2022/10/16 14:09:21;;;;;;;4.10;2.17;;;;;;;18.15;83.02;100756.13;4954540;29;20046;-71
2022/10/16 14:12:24;;;;;;;4.33;3.17;;;;;;;18.16;83.83;100763.13;4953856;28;20101;-71
2022/10/16 14:15:36;;;;;;;10.20;9.07;;;;;;;18.11;82.87;100754.72;4953678;29;20333;-71
2022/10/16 14:18:39;;;;;;;4.03;3.63;;;;;;;18.03;84.34;100752.69;4954210;29;20046;-71
2022/10/16 14:21:43;;;;;;;4.82;2.40;;;;;;;17.94;84.74;100744.66;4954352;29;20126;-71
2022/10/16 14:24:47;;;;;;;3.05;0.70;;;;;;;17.92;87.00;100757.16;4954296;29;20085;-72
2022/10/16 14:28:05;;;;;;;1.85;0.50;;;;;;;17.96;87.13;100755.94;4942027;29;20046;-71
2022/10/16 14:31:29;;;;;;;5.75;5.13;;;;;;;18.06;86.24;100752.44;4954162;29;20050;-71
2022/10/16 14:34:36;;;;;;;20.92;5.63;;;;;;;18.15;87.30;100748.19;4953955;29;20094;-71
2022/10/16 14:37:40;;;;;;;14.88;6.95;;;;;;;18.29;87.74;100755.88;4954166;29;20458;-71
2022/10/16 14:40:49;;;;;;;6.70;4.57;;;;;;;18.34;86.53;100753.69;4953722;29;20066;-71
2022/10/16 14:43:56;;;;;;;3.13;1.80;;;;;;;18.34;89.20;100756.31;4956092;28;20126;-71
2022/10/16 14:50:42;;;;;;;11.80;4.78;;;;;;;18.23;90.17;100758.19;4958054;29;20394;-71